Trotwood, Ohio
Current Conditions -  °F | °C
As of 11:56 PM on Tuesday 25 Nov 2014 (Local Time) from KDAY Reporting Station
Overcast Overcast  
Wind Chill: 23°   Ceiling: 16000
Heat Index: 29°   Visibility: 9mi
Dew Point: 25°   Wind: 6mph
Humidity: 85%   Direction: 40°NE
Pressure: 30.18"   Gusts: NA
Location:  39.8348°N, 84.2576°W
Report Text: KDAY 260456Z 04005KT 9SM OVC160 M02/M04 A3018 RMK AO2 SLP229 T10171039 400391017
Loading
Personal Weather Stations






























Interactive Weather Map New forecast layout! Learn more

10-Day Weather Forecast

Advertisements
Track Severe Weather on mobile